sensor_id;sensor_type;location;lat;lon;timestamp;P1;durP1;ratioP1;P2;durP2;ratioP2
16387;SDS011;8303;53.446;9.988;2023-03-01T05:47:45;6.57;;;5.97;;
16387;SDS011;8303;53.446;9.988;2023-03-01T05:50:14;6.70;;;6.10;;
16387;SDS011;8303;53.446;9.988;2023-03-01T05:52:45;7.97;;;7.17;;
16387;SDS011;8303;53.446;9.988;2023-03-01T05:55:13;8.13;;;5.60;;
16387;SDS011;8303;53.446;9.988;2023-03-01T05:57:41;6.77;;;5.50;;
16387;SDS011;8303;53.446;9.988;2023-03-01T06:00:08;8.20;;;6.27;;
16387;SDS011;8303;53.446;9.988;2023-03-01T06:02:38;6.63;;;6.03;;
16387;SDS011;8303;53.446;9.988;2023-03-01T06:05:06;7.17;;;6.47;;
16387;SDS011;8303;53.446;9.988;2023-03-01T06:07:34;6.30;;;5.80;;
16387;SDS011;8303;53.446;9.988;2023-03-01T06:10:01;6.67;;;6.07;;
16387;SDS011;8303;53.446;9.988;2023-03-01T06:12:30;8.00;;;7.20;;
16387;SDS011;8303;53.446;9.988;2023-03-01T06:14:58;8.17;;;6.57;;
16387;SDS011;8303;53.446;9.988;2023-03-01T06:17:25;6.77;;;6.00;;
16387;SDS011;8303;53.446;9.988;2023-03-01T06:19:57;9.00;;;5.70;;
16387;SDS011;8303;53.446;9.988;2023-03-01T06:22:24;8.47;;;5.73;;
16387;SDS011;8303;53.446;9.988;2023-03-01T06:24:53;7.03;;;6.30;;
16387;SDS011;8303;53.446;9.988;2023-03-01T06:27:20;7.30;;;6.50;;
16387;SDS011;8303;53.446;9.988;2023-03-01T06:29:47;7.83;;;7.00;;
16387;SDS011;8303;53.446;9.988;2023-03-01T06:32:14;9.07;;;6.10;;
16387;SDS011;8303;53.446;9.988;2023-03-01T06:34:44;7.00;;;6.30;;
16387;SDS011;8303;53.446;9.988;2023-03-01T06:37:13;9.07;;;7.30;;
16387;SDS011;8303;53.446;9.988;2023-03-01T06:39:42;7.60;;;6.90;;
16387;SDS011;8303;53.446;9.988;2023-03-01T06:42:10;10.13;;;9.23;;
16387;SDS011;8303;53.446;9.988;2023-03-01T06:44:37;7.60;;;6.90;;
16387;SDS011;8303;53.446;9.988;2023-03-01T06:47:04;10.63;;;9.63;;
16387;SDS011;8303;53.446;9.988;2023-03-01T06:49:31;7.47;;;6.77;;
16387;SDS011;8303;53.446;9.988;2023-03-01T06:52:00;9.57;;;7.73;;
16387;SDS011;8303;53.446;9.988;2023-03-01T06:54:28;7.23;;;6.53;;
16387;SDS011;8303;53.446;9.988;2023-03-01T06:56:55;8.00;;;7.20;;
16387;SDS011;8303;53.446;9.988;2023-03-01T06:59:22;11.27;;;7.77;;
16387;SDS011;8303;53.446;9.988;2023-03-01T07:01:49;7.33;;;6.20;;
16387;SDS011;8303;53.446;9.988;2023-03-01T07:04:16;10.27;;;6.50;;
16387;SDS011;8303;53.446;9.988;2023-03-01T07:06:44;7.83;;;7.03;;
16387;SDS011;8303;53.446;9.988;2023-03-01T07:09:11;7.50;;;6.60;;
16387;SDS011;8303;53.446;9.988;2023-03-01T07:11:40;13.03;;;7.63;;
16387;SDS011;8303;53.446;9.988;2023-03-01T07:14:07;8.40;;;7.40;;
16387;SDS011;8303;53.446;9.988;2023-03-01T07:16:34;9.50;;;7.00;;
16387;SDS011;8303;53.446;9.988;2023-03-01T07:19:01;12.10;;;7.10;;
16387;SDS011;8303;53.446;9.988;2023-03-01T07:21:30;9.97;;;7.77;;
16387;SDS011;8303;53.446;9.988;2023-03-01T07:23:57;8.03;;;6.70;;
16387;SDS011;8303;53.446;9.988;2023-03-01T07:26:24;9.23;;;7.97;;
16387;SDS011;8303;53.446;9.988;2023-03-01T07:28:52;11.30;;;7.63;;
16387;SDS011;8303;53.446;9.988;2023-03-01T07:31:19;9.57;;;7.40;;
16387;SDS011;8303;53.446;9.988;2023-03-01T07:33:49;8.03;;;7.23;;
16387;SDS011;8303;53.446;9.988;2023-03-01T07:36:16;11.47;;;8.63;;
16387;SDS011;8303;53.446;9.988;2023-03-01T07:38:43;10.87;;;7.60;;
16387;SDS011;8303;53.446;9.988;2023-03-01T07:41:10;11.10;;;8.83;;
16387;SDS011;8303;53.446;9.988;2023-03-01T07:43:37;8.33;;;7.53;;
16387;SDS011;8303;53.446;9.988;2023-03-01T07:46:06;9.70;;;7.27;;
16387;SDS011;8303;53.446;9.988;2023-03-01T07:48:33;12.40;;;9.03;;
16387;SDS011;8303;53.446;9.988;2023-03-01T07:51:00;10.03;;;8.67;;
16387;SDS011;8303;53.446;9.988;2023-03-01T07:53:29;11.40;;;10.20;;
16387;SDS011;8303;53.446;9.988;2023-03-01T07:56:00;10.03;;;9.03;;
16387;SDS011;8303;53.446;9.988;2023-03-01T07:58:28;13.77;;;10.60;;
16387;SDS011;8303;53.446;9.988;2023-03-01T08:00:55;10.97;;;9.97;;
16387;SDS011;8303;53.446;9.988;2023-03-01T08:03:23;12.03;;;8.30;;
16387;SDS011;8303;53.446;9.988;2023-03-01T08:05:50;10.67;;;9.70;;
16387;SDS011;8303;53.446;9.988;2023-03-01T08:08:17;9.73;;;8.10;;
16387;SDS011;8303;53.446;9.988;2023-03-01T08:10:44;10.00;;;8.53;;
16387;SDS011;8303;53.446;9.988;2023-03-01T08:13:11;9.80;;;8.80;;
16387;SDS011;8303;53.446;9.988;2023-03-01T08:15:38;10.37;;;9.07;;
16387;SDS011;8303;53.446;9.988;2023-03-01T08:18:05;9.93;;;8.93;;
16387;SDS011;8303;53.446;9.988;2023-03-01T08:20:34;10.67;;;9.67;;
16387;SDS011;8303;53.446;9.988;2023-03-01T08:23:01;9.57;;;8.60;;
16387;SDS011;8303;53.446;9.988;2023-03-01T08:25:28;10.20;;;9.20;;
16387;SDS011;8303;53.446;9.988;2023-03-01T08:27:55;10.63;;;9.73;;
16387;SDS011;8303;53.446;9.988;2023-03-01T08:30:22;11.17;;;10.07;;
16387;SDS011;8303;53.446;9.988;2023-03-01T08:32:49;12.80;;;9.70;;
16387;SDS011;8303;53.446;9.988;2023-03-01T08:35:16;10.70;;;9.67;;
16387;SDS011;8303;53.446;9.988;2023-03-01T08:37:45;13.47;;;10.10;;
16387;SDS011;8303;53.446;9.988;2023-03-01T08:40:12;10.63;;;9.67;;
16387;SDS011;8303;53.446;9.988;2023-03-01T08:42:40;12.50;;;11.17;;
16387;SDS011;8303;53.446;9.988;2023-03-01T08:45:09;12.33;;;11.23;;
16387;SDS011;8303;53.446;9.988;2023-03-01T08:47:37;15.23;;;13.63;;
16387;SDS011;8303;53.446;9.988;2023-03-01T08:50:04;15.47;;;13.97;;
16387;SDS011;8303;53.446;9.988;2023-03-01T08:52:32;19.60;;;17.93;;
16387;SDS011;8303;53.446;9.988;2023-03-01T08:55:00;26.47;;;24.53;;
16387;SDS011;8303;53.446;9.988;2023-03-01T08:57:27;14.03;;;12.60;;
16387;SDS011;8303;53.446;9.988;2023-03-01T08:59:54;23.63;;;21.63;;
16387;SDS011;8303;53.446;9.988;2023-03-01T09:02:22;15.67;;;14.03;;
16387;SDS011;8303;53.446;9.988;2023-03-01T09:04:49;17.50;;;15.23;;
16387;SDS011;8303;53.446;9.988;2023-03-01T09:07:16;21.10;;;19.40;;
16387;SDS011;8303;53.446;9.988;2023-03-01T09:09:45;21.87;;;19.93;;
16387;SDS011;8303;53.446;9.988;2023-03-01T09:12:13;16.83;;;15.10;;
16387;SDS011;8303;53.446;9.988;2023-03-01T09:14:40;19.50;;;14.10;;
16387;SDS011;8303;53.446;9.988;2023-03-01T09:17:07;43.37;;;39.87;;
16387;SDS011;8303;53.446;9.988;2023-03-01T09:19:34;24.63;;;22.10;;
16387;SDS011;8303;53.446;9.988;2023-03-01T09:22:02;17.70;;;15.20;;
16387;SDS011;8303;53.446;9.988;2023-03-01T09:24:29;15.37;;;12.73;;
16387;SDS011;8303;53.446;9.988;2023-03-01T09:26:56;22.30;;;19.97;;
16387;SDS011;8303;53.446;9.988;2023-03-01T09:29:25;22.17;;;15.13;;
16387;SDS011;8303;53.446;9.988;2023-03-01T09:31:52;15.83;;;14.23;;
16387;SDS011;8303;53.446;9.988;2023-03-01T09:34:20;19.27;;;17.40;;
16387;SDS011;8303;53.446;9.988;2023-03-01T09:36:48;15.07;;;13.27;;
16387;SDS011;8303;53.446;9.988;2023-03-01T09:39:16;16.80;;;14.10;;
16387;SDS011;8303;53.446;9.988;2023-03-01T09:41:45;27.73;;;25.57;;
16387;SDS011;8303;53.446;9.988;2023-03-01T09:44:21;18.03;;;13.70;;
16387;SDS011;8303;53.446;9.988;2023-03-01T09:46:56;17.77;;;15.73;;
16387;SDS011;8303;53.446;9.988;2023-03-01T09:49:24;18.87;;;16.93;;
16387;SDS011;8303;53.446;9.988;2023-03-01T09:51:54;21.07;;;17.67;;
16387;SDS011;8303;53.446;9.988;2023-03-01T09:54:24;23.53;;;21.20;;
16387;SDS011;8303;53.446;9.988;2023-03-01T09:57:04;25.13;;;22.83;;
16387;SDS011;8303;53.446;9.988;2023-03-01T09:59:43;24.80;;;21.87;;
16387;SDS011;8303;53.446;9.988;2023-03-01T10:02:23;17.83;;;14.80;;
16387;SDS011;8303;53.446;9.988;2023-03-01T10:04:54;20.33;;;16.30;;
16387;SDS011;8303;53.446;9.988;2023-03-01T10:07:32;23.27;;;16.67;;
16387;SDS011;8303;53.446;9.988;2023-03-01T10:10:10;21.93;;;19.07;;
16387;SDS011;8303;53.446;9.988;2023-03-01T10:12:47;22.63;;;18.23;;
16387;SDS011;8303;53.446;9.988;2023-03-01T10:15:18;22.60;;;16.87;;
16387;SDS011;8303;53.446;9.988;2023-03-01T10:17:49;29.13;;;18.00;;
16387;SDS011;8303;53.446;9.988;2023-03-01T10:20:20;26.07;;;23.53;;
16387;SDS011;8303;53.446;9.988;2023-03-01T10:22:48;23.03;;;16.30;;
16387;SDS011;8303;53.446;9.988;2023-03-01T10:25:20;20.77;;;18.40;;
16387;SDS011;8303;53.446;9.988;2023-03-01T10:27:59;19.80;;;17.73;;
16387;SDS011;8303;53.446;9.988;2023-03-01T10:30:34;31.93;;;23.63;;
16387;SDS011;8303;53.446;9.988;2023-03-01T10:33:04;20.90;;;18.73;;
16387;SDS011;8303;53.446;9.988;2023-03-01T10:35:40;20.47;;;18.07;;
16387;SDS011;8303;53.446;9.988;2023-03-01T10:38:08;21.60;;;14.33;;
16387;SDS011;8303;53.446;9.988;2023-03-01T10:40:37;24.03;;;17.80;;
16387;SDS011;8303;53.446;9.988;2023-03-01T10:43:18;20.97;;;18.20;;
16387;SDS011;8303;53.446;9.988;2023-03-01T10:45:47;20.57;;;18.47;;
16387;SDS011;8303;53.446;9.988;2023-03-01T10:48:15;24.10;;;21.53;;
16387;SDS011;8303;53.446;9.988;2023-03-01T10:50:45;24.47;;;16.67;;
16387;SDS011;8303;53.446;9.988;2023-03-01T10:53:23;25.70;;;19.80;;
16387;SDS011;8303;53.446;9.988;2023-03-01T10:55:58;45.77;;;33.20;;
16387;SDS011;8303;53.446;9.988;2023-03-01T10:58:27;34.87;;;26.63;;
16387;SDS011;8303;53.446;9.988;2023-03-01T11:00:58;24.57;;;19.50;;
16387;SDS011;8303;53.446;9.988;2023-03-01T11:03:27;27.67;;;24.87;;
16387;SDS011;8303;53.446;9.988;2023-03-01T11:06:01;24.00;;;17.47;;
16387;SDS011;8303;53.446;9.988;2023-03-01T11:08:32;20.10;;;17.87;;
16387;SDS011;8303;53.446;9.988;2023-03-01T11:11:10;25.40;;;20.63;;
16387;SDS011;8303;53.446;9.988;2023-03-01T11:13:49;22.07;;;18.70;;
16387;SDS011;8303;53.446;9.988;2023-03-01T11:16:26;25.27;;;19.10;;
16387;SDS011;8303;53.446;9.988;2023-03-01T11:19:12;23.50;;;20.83;;
16387;SDS011;8303;53.446;9.988;2023-03-01T11:21:43;23.33;;;18.83;;
16387;SDS011;8303;53.446;9.988;2023-03-01T11:24:18;20.90;;;18.57;;
16387;SDS011;8303;53.446;9.988;2023-03-01T11:26:51;26.30;;;18.83;;
16387;SDS011;8303;53.446;9.988;2023-03-01T11:29:24;22.53;;;20.13;;
16387;SDS011;8303;53.446;9.988;2023-03-01T11:31:56;24.63;;;19.47;;
16387;SDS011;8303;53.446;9.988;2023-03-01T11:34:31;36.93;;;33.60;;
16387;SDS011;8303;53.446;9.988;2023-03-01T11:37:12;25.93;;;20.90;;
16387;SDS011;8303;53.446;9.988;2023-03-01T11:39:58;25.53;;;18.40;;
16387;SDS011;8303;53.446;9.988;2023-03-01T11:42:34;21.77;;;17.73;;
16387;SDS011;8303;53.446;9.988;2023-03-01T11:45:11;31.47;;;28.43;;
16387;SDS011;8303;53.446;9.988;2023-03-01T11:47:45;20.70;;;16.83;;
16387;SDS011;8303;53.446;9.988;2023-03-01T11:50:35;22.20;;;18.10;;
16387;SDS011;8303;53.446;9.988;2023-03-01T11:56:03;22.83;;;20.53;;
16387;SDS011;8303;53.446;9.988;2023-03-01T12:01:36;18.77;;;15.97;;
16387;SDS011;8303;53.446;9.988;2023-03-01T12:07:21;23.10;;;18.37;;
16387;SDS011;8303;53.446;9.988;2023-03-01T12:10:04;25.00;;;19.17;;
16387;SDS011;8303;53.446;9.988;2023-03-01T12:12:53;21.10;;;17.67;;
16387;SDS011;8303;53.446;9.988;2023-03-01T12:15:49;22.67;;;17.40;;
16387;SDS011;8303;53.446;9.988;2023-03-01T12:18:43;24.67;;;21.63;;
16387;SDS011;8303;53.446;9.988;2023-03-01T12:21:30;23.50;;;18.27;;
16387;SDS011;8303;53.446;9.988;2023-03-01T12:27:16;19.37;;;17.27;;
16387;SDS011;8303;53.446;9.988;2023-03-01T12:29:57;22.90;;;16.97;;
16387;SDS011;8303;53.446;9.988;2023-03-01T12:32:36;19.17;;;16.57;;
16387;SDS011;8303;53.446;9.988;2023-03-01T12:35:16;23.30;;;16.53;;
16387;SDS011;8303;53.446;9.988;2023-03-01T12:37:57;24.23;;;17.43;;
16387;SDS011;8303;53.446;9.988;2023-03-01T12:40:46;23.33;;;17.70;;
16387;SDS011;8303;53.446;9.988;2023-03-01T12:43:33;22.20;;;17.63;;
16387;SDS011;8303;53.446;9.988;2023-03-01T12:46:10;24.33;;;15.73;;
16387;SDS011;8303;53.446;9.988;2023-03-01T12:48:50;20.17;;;16.50;;
16387;SDS011;8303;53.446;9.988;2023-03-01T12:51:26;19.87;;;16.53;;
16387;SDS011;8303;53.446;9.988;2023-03-01T12:54:01;19.93;;;16.07;;
16387;SDS011;8303;53.446;9.988;2023-03-01T12:56:38;19.47;;;15.33;;
16387;SDS011;8303;53.446;9.988;2023-03-01T12:59:08;22.53;;;20.23;;
16387;SDS011;8303;53.446;9.988;2023-03-01T13:01:42;20.43;;;18.27;;
16387;SDS011;8303;53.446;9.988;2023-03-01T13:04:17;20.47;;;15.00;;
16387;SDS011;8303;53.446;9.988;2023-03-01T13:07:00;25.43;;;22.83;;
16387;SDS011;8303;53.446;9.988;2023-03-01T13:09:37;21.33;;;15.07;;
16387;SDS011;8303;53.446;9.988;2023-03-01T13:15:26;21.93;;;18.17;;
16387;SDS011;8303;53.446;9.988;2023-03-01T13:17:58;21.40;;;18.63;;
16387;SDS011;8303;53.446;9.988;2023-03-01T13:20:29;20.27;;;15.50;;
16387;SDS011;8303;53.446;9.988;2023-03-01T13:23:02;20.90;;;16.67;;
16387;SDS011;8303;53.446;9.988;2023-03-01T13:25:35;24.37;;;19.83;;
16387;SDS011;8303;53.446;9.988;2023-03-01T13:28:37;18.60;;;16.47;;
16387;SDS011;8303;53.446;9.988;2023-03-01T13:31:07;20.87;;;17.20;;
16387;SDS011;8303;53.446;9.988;2023-03-01T13:33:39;22.90;;;17.73;;
16387;SDS011;8303;53.446;9.988;2023-03-01T13:36:09;20.60;;;17.93;;
16387;SDS011;8303;53.446;9.988;2023-03-01T13:38:47;19.13;;;16.93;;
16387;SDS011;8303;53.446;9.988;2023-03-01T13:44:21;18.50;;;16.33;;
16387;SDS011;8303;53.446;9.988;2023-03-01T13:46:52;24.33;;;22.07;;
16387;SDS011;8303;53.446;9.988;2023-03-01T13:49:23;19.27;;;16.60;;
16387;SDS011;8303;53.446;9.988;2023-03-01T13:51:52;19.10;;;15.47;;
16387;SDS011;8303;53.446;9.988;2023-03-01T13:54:25;16.57;;;14.97;;
16387;SDS011;8303;53.446;9.988;2023-03-01T13:56:54;17.00;;;14.80;;
16387;SDS011;8303;53.446;9.988;2023-03-01T13:59:23;17.13;;;15.33;;
16387;SDS011;8303;53.446;9.988;2023-03-01T14:01:52;17.50;;;15.87;;
16387;SDS011;8303;53.446;9.988;2023-03-01T14:04:21;22.03;;;19.90;;
16387;SDS011;8303;53.446;9.988;2023-03-01T14:06:50;20.87;;;18.83;;
16387;SDS011;8303;53.446;9.988;2023-03-01T14:09:18;17.40;;;13.90;;
16387;SDS011;8303;53.446;9.988;2023-03-01T14:11:59;32.10;;;29.67;;
16387;SDS011;8303;53.446;9.988;2023-03-01T14:14:53;36.47;;;33.67;;
16387;SDS011;8303;53.446;9.988;2023-03-01T14:17:38;30.57;;;28.20;;
16387;SDS011;8303;53.446;9.988;2023-03-01T14:20:12;31.27;;;28.77;;
16387;SDS011;8303;53.446;9.988;2023-03-01T14:22:43;29.90;;;27.63;;
16387;SDS011;8303;53.446;9.988;2023-03-01T14:25:22;32.43;;;30.03;;
16387;SDS011;8303;53.446;9.988;2023-03-01T14:27:51;29.90;;;27.57;;
16387;SDS011;8303;53.446;9.988;2023-03-01T14:30:27;29.37;;;27.17;;
16387;SDS011;8303;53.446;9.988;2023-03-01T14:32:59;23.90;;;21.90;;
16387;SDS011;8303;53.446;9.988;2023-03-01T14:35:28;22.40;;;20.37;;
16387;SDS011;8303;53.446;9.988;2023-03-01T14:37:58;36.47;;;33.77;;
16387;SDS011;8303;53.446;9.988;2023-03-01T14:40:26;32.00;;;29.70;;
16387;SDS011;8303;53.446;9.988;2023-03-01T14:42:56;34.67;;;31.93;;
16387;SDS011;8303;53.446;9.988;2023-03-01T14:45:27;26.57;;;24.47;;
16387;SDS011;8303;53.446;9.988;2023-03-01T14:47:55;56.60;;;52.73;;
16387;SDS011;8303;53.446;9.988;2023-03-01T14:50:28;30.13;;;27.83;;
16387;SDS011;8303;53.446;9.988;2023-03-01T14:52:58;46.40;;;43.07;;
16387;SDS011;8303;53.446;9.988;2023-03-01T14:55:29;68.20;;;63.80;;
16387;SDS011;8303;53.446;9.988;2023-03-01T14:57:58;46.13;;;43.07;;
16387;SDS011;8303;53.446;9.988;2023-03-01T15:00:30;35.50;;;32.93;;
16387;SDS011;8303;53.446;9.988;2023-03-01T15:03:00;43.37;;;40.27;;
16387;SDS011;8303;53.446;9.988;2023-03-01T15:05:34;85.47;;;80.43;;
16387;SDS011;8303;53.446;9.988;2023-03-01T15:08:02;57.73;;;54.20;;
16387;SDS011;8303;53.446;9.988;2023-03-01T15:10:31;52.13;;;48.20;;
16387;SDS011;8303;53.446;9.988;2023-03-01T15:13:09;67.23;;;63.03;;
16387;SDS011;8303;53.446;9.988;2023-03-01T15:15:42;70.77;;;66.47;;
16387;SDS011;8303;53.446;9.988;2023-03-01T15:18:15;68.67;;;64.23;;
16387;SDS011;8303;53.446;9.988;2023-03-01T15:20:44;67.17;;;62.97;;
16387;SDS011;8303;53.446;9.988;2023-03-01T15:23:18;78.07;;;73.17;;
16387;SDS011;8303;53.446;9.988;2023-03-01T15:25:58;69.20;;;64.53;;
16387;SDS011;8303;53.446;9.988;2023-03-01T15:28:26;126.33;;;119.20;;
16387;SDS011;8303;53.446;9.988;2023-03-01T15:31:00;83.70;;;78.70;;
16387;SDS011;8303;53.446;9.988;2023-03-01T15:33:32;79.43;;;74.37;;
16387;SDS011;8303;53.446;9.988;2023-03-01T15:36:01;78.03;;;73.33;;
16387;SDS011;8303;53.446;9.988;2023-03-01T15:38:34;41.03;;;38.10;;
16387;SDS011;8303;53.446;9.988;2023-03-01T15:41:20;31.30;;;29.00;;
16387;SDS011;8303;53.446;9.988;2023-03-01T15:43:49;33.80;;;31.17;;
16387;SDS011;8303;53.446;9.988;2023-03-01T15:46:24;35.67;;;32.90;;
16387;SDS011;8303;53.446;9.988;2023-03-01T15:48:54;23.70;;;21.70;;
16387;SDS011;8303;53.446;9.988;2023-03-01T15:51:27;22.47;;;20.67;;
16387;SDS011;8303;53.446;9.988;2023-03-01T15:53:56;22.87;;;21.07;;
16387;SDS011;8303;53.446;9.988;2023-03-01T15:56:26;24.67;;;22.67;;
16387;SDS011;8303;53.446;9.988;2023-03-01T15:58:57;28.03;;;25.50;;
16387;SDS011;8303;53.446;9.988;2023-03-01T16:01:26;27.93;;;25.53;;
16387;SDS011;8303;53.446;9.988;2023-03-01T16:03:54;28.63;;;26.43;;
16387;SDS011;8303;53.446;9.988;2023-03-01T16:06:22;23.40;;;21.10;;
16387;SDS011;8303;53.446;9.988;2023-03-01T16:08:49;23.17;;;19.97;;
16387;SDS011;8303;53.446;9.988;2023-03-01T16:11:17;27.50;;;25.27;;
16387;SDS011;8303;53.446;9.988;2023-03-01T16:13:45;18.67;;;17.07;;
16387;SDS011;8303;53.446;9.988;2023-03-01T16:16:13;24.70;;;22.50;;
16387;SDS011;8303;53.446;9.988;2023-03-01T16:18:43;23.97;;;19.13;;
16387;SDS011;8303;53.446;9.988;2023-03-01T16:21:14;21.40;;;19.20;;
16387;SDS011;8303;53.446;9.988;2023-03-01T16:23:49;19.97;;;18.27;;
16387;SDS011;8303;53.446;9.988;2023-03-01T16:26:16;21.37;;;19.30;;
16387;SDS011;8303;53.446;9.988;2023-03-01T16:28:44;20.40;;;18.47;;
16387;SDS011;8303;53.446;9.988;2023-03-01T16:31:16;20.70;;;18.90;;
16387;SDS011;8303;53.446;9.988;2023-03-01T16:33:46;23.87;;;21.57;;
16387;SDS011;8303;53.446;9.988;2023-03-01T16:36:16;17.40;;;14.60;;
16387;SDS011;8303;53.446;9.988;2023-03-01T16:38:43;18.93;;;17.13;;
16387;SDS011;8303;53.446;9.988;2023-03-01T16:41:11;17.83;;;13.83;;
16387;SDS011;8303;53.446;9.988;2023-03-01T16:43:40;17.80;;;15.10;;
16387;SDS011;8303;53.446;9.988;2023-03-01T16:46:10;19.80;;;14.57;;
16387;SDS011;8303;53.446;9.988;2023-03-01T16:48:37;22.07;;;13.70;;
16387;SDS011;8303;53.446;9.988;2023-03-01T16:51:09;19.53;;;14.83;;
16387;SDS011;8303;53.446;9.988;2023-03-01T16:53:36;20.30;;;15.47;;
16387;SDS011;8303;53.446;9.988;2023-03-01T16:56:04;18.50;;;15.10;;
16387;SDS011;8303;53.446;9.988;2023-03-01T16:58:33;18.63;;;13.37;;
16387;SDS011;8303;53.446;9.988;2023-03-01T17:01:04;20.07;;;14.27;;
16387;SDS011;8303;53.446;9.988;2023-03-01T17:03:32;20.77;;;13.43;;
16387;SDS011;8303;53.446;9.988;2023-03-01T17:06:04;18.67;;;14.27;;
16387;SDS011;8303;53.446;9.988;2023-03-01T17:08:33;21.60;;;14.90;;
16387;SDS011;8303;53.446;9.988;2023-03-01T17:11:02;21.67;;;14.50;;
16387;SDS011;8303;53.446;9.988;2023-03-01T17:13:33;20.87;;;17.00;;
16387;SDS011;8303;53.446;9.988;2023-03-01T17:16:02;22.80;;;15.37;;
16387;SDS011;8303;53.446;9.988;2023-03-01T17:18:31;20.77;;;14.43;;
16387;SDS011;8303;53.446;9.988;2023-03-01T17:20:59;21.73;;;14.13;;
16387;SDS011;8303;53.446;9.988;2023-03-01T17:23:27;20.53;;;14.00;;
16387;SDS011;8303;53.446;9.988;2023-03-01T17:25:56;23.50;;;15.17;;
16387;SDS011;8303;53.446;9.988;2023-03-01T17:28:25;26.93;;;15.37;;
16387;SDS011;8303;53.446;9.988;2023-03-01T17:30:53;19.63;;;13.73;;
16387;SDS011;8303;53.446;9.988;2023-03-01T17:33:20;21.97;;;14.30;;
16387;SDS011;8303;53.446;9.988;2023-03-01T17:35:48;22.40;;;15.20;;
16387;SDS011;8303;53.446;9.988;2023-03-01T17:38:15;21.33;;;14.90;;
16387;SDS011;8303;53.446;9.988;2023-03-01T17:40:43;24.27;;;13.83;;
16387;SDS011;8303;53.446;9.988;2023-03-01T17:43:13;20.20;;;13.70;;
16387;SDS011;8303;53.446;9.988;2023-03-01T17:45:42;23.03;;;16.47;;
16387;SDS011;8303;53.446;9.988;2023-03-01T17:48:12;20.03;;;13.57;;
16387;SDS011;8303;53.446;9.988;2023-03-01T17:50:41;16.33;;;11.77;;
16387;SDS011;8303;53.446;9.988;2023-03-01T17:53:08;17.93;;;12.40;;
16387;SDS011;8303;53.446;9.988;2023-03-01T17:55:36;14.73;;;12.50;;
16387;SDS011;8303;53.446;9.988;2023-03-01T17:58:06;16.67;;;13.93;;
16387;SDS011;8303;53.446;9.988;2023-03-01T18:00:35;14.80;;;12.87;;
16387;SDS011;8303;53.446;9.988;2023-03-01T18:03:03;12.50;;;11.03;;
16387;SDS011;8303;53.446;9.988;2023-03-01T18:05:30;17.37;;;13.27;;
16387;SDS011;8303;53.446;9.988;2023-03-01T18:07:58;15.00;;;10.40;;
16387;SDS011;8303;53.446;9.988;2023-03-01T18:10:25;19.30;;;11.63;;
16387;SDS011;8303;53.446;9.988;2023-03-01T18:12:52;15.67;;;11.70;;
16387;SDS011;8303;53.446;9.988;2023-03-01T18:15:19;14.93;;;10.70;;
16387;SDS011;8303;53.446;9.988;2023-03-01T18:17:48;16.43;;;11.63;;
16387;SDS011;8303;53.446;9.988;2023-03-01T18:20:15;21.17;;;13.13;;
16387;SDS011;8303;53.446;9.988;2023-03-01T18:22:43;18.40;;;11.93;;
16387;SDS011;8303;53.446;9.988;2023-03-01T18:25:11;17.67;;;11.33;;
16387;SDS011;8303;53.446;9.988;2023-03-01T18:27:39;18.37;;;15.10;;
16387;SDS011;8303;53.446;9.988;2023-03-01T18:30:06;17.30;;;11.83;;
16387;SDS011;8303;53.446;9.988;2023-03-01T18:32:34;14.43;;;10.40;;
16387;SDS011;8303;53.446;9.988;2023-03-01T18:35:05;17.03;;;11.50;;
16387;SDS011;8303;53.446;9.988;2023-03-01T18:37:33;15.67;;;10.87;;
16387;SDS011;8303;53.446;9.988;2023-03-01T18:40:00;21.23;;;11.80;;
16387;SDS011;8303;53.446;9.988;2023-03-01T18:42:28;14.20;;;10.97;;
16387;SDS011;8303;53.446;9.988;2023-03-01T18:44:55;16.80;;;11.70;;
16387;SDS011;8303;53.446;9.988;2023-03-01T18:47:23;17.63;;;12.03;;
16387;SDS011;8303;53.446;9.988;2023-03-01T18:49:50;17.40;;;12.93;;
16387;SDS011;8303;53.446;9.988;2023-03-01T18:52:19;18.10;;;12.23;;
16387;SDS011;8303;53.446;9.988;2023-03-01T18:54:46;18.47;;;14.80;;
16387;SDS011;8303;53.446;9.988;2023-03-01T18:57:13;18.70;;;13.37;;
16387;SDS011;8303;53.446;9.988;2023-03-01T18:59:40;15.30;;;11.90;;
16387;SDS011;8303;53.446;9.988;2023-03-01T19:02:12;18.23;;;13.43;;
16387;SDS011;8303;53.446;9.988;2023-03-01T19:04:39;19.17;;;12.83;;
16387;SDS011;8303;53.446;9.988;2023-03-01T19:07:07;19.23;;;13.63;;
16387;SDS011;8303;53.446;9.988;2023-03-01T19:09:35;23.50;;;14.03;;
16387;SDS011;8303;53.446;9.988;2023-03-01T19:12:02;26.10;;;15.07;;
16387;SDS011;8303;53.446;9.988;2023-03-01T19:14:30;23.07;;;14.20;;
16387;SDS011;8303;53.446;9.988;2023-03-01T19:16:57;22.97;;;16.17;;
16387;SDS011;8303;53.446;9.988;2023-03-01T19:19:24;28.37;;;15.73;;
16387;SDS011;8303;53.446;9.988;2023-03-01T19:21:51;25.53;;;16.17;;
16387;SDS011;8303;53.446;9.988;2023-03-01T19:24:18;26.80;;;16.17;;
16387;SDS011;8303;53.446;9.988;2023-03-01T19:26:46;26.83;;;16.50;;
16387;SDS011;8303;53.446;9.988;2023-03-01T19:29:14;23.30;;;16.40;;
16387;SDS011;8303;53.446;9.988;2023-03-01T19:31:40;25.67;;;16.37;;
16387;SDS011;8303;53.446;9.988;2023-03-01T19:34:08;25.53;;;16.47;;
16387;SDS011;8303;53.446;9.988;2023-03-01T19:36:35;30.83;;;18.40;;
16387;SDS011;8303;53.446;9.988;2023-03-01T19:39:03;26.33;;;16.83;;
16387;SDS011;8303;53.446;9.988;2023-03-01T19:41:32;26.80;;;16.27;;
16387;SDS011;8303;53.446;9.988;2023-03-01T19:44:00;30.70;;;18.83;;
16387;SDS011;8303;53.446;9.988;2023-03-01T19:46:29;32.43;;;19.60;;
16387;SDS011;8303;53.446;9.988;2023-03-01T19:48:56;29.97;;;17.17;;
16387;SDS011;8303;53.446;9.988;2023-03-01T19:51:25;29.40;;;17.57;;
16387;SDS011;8303;53.446;9.988;2023-03-01T19:53:52;32.23;;;19.30;;
16387;SDS011;8303;53.446;9.988;2023-03-01T19:56:19;31.40;;;19.67;;
16387;SDS011;8303;53.446;9.988;2023-03-01T19:58:46;32.93;;;20.03;;
16387;SDS011;8303;53.446;9.988;2023-03-01T20:01:16;32.70;;;19.77;;
16387;SDS011;8303;53.446;9.988;2023-03-01T20:03:45;42.53;;;21.27;;
16387;SDS011;8303;53.446;9.988;2023-03-01T20:06:13;31.80;;;20.60;;
16387;SDS011;8303;53.446;9.988;2023-03-01T20:08:41;39.10;;;23.50;;
16387;SDS011;8303;53.446;9.988;2023-03-01T20:11:10;38.97;;;22.07;;
16387;SDS011;8303;53.446;9.988;2023-03-01T20:13:38;38.97;;;22.60;;
16387;SDS011;8303;53.446;9.988;2023-03-01T20:16:05;44.43;;;22.87;;
16387;SDS011;8303;53.446;9.988;2023-03-01T20:18:34;54.07;;;27.30;;
16387;SDS011;8303;53.446;9.988;2023-03-01T20:21:02;64.67;;;32.00;;
16387;SDS011;8303;53.446;9.988;2023-03-01T20:23:33;62.17;;;30.37;;
16387;SDS011;8303;53.446;9.988;2023-03-01T20:26:00;62.67;;;29.70;;
16387;SDS011;8303;53.446;9.988;2023-03-01T20:28:28;59.70;;;29.30;;
16387;SDS011;8303;53.446;9.988;2023-03-01T20:31:01;62.93;;;29.73;;
16387;SDS011;8303;53.446;9.988;2023-03-01T20:33:29;76.73;;;34.13;;
16387;SDS011;8303;53.446;9.988;2023-03-01T20:35:58;81.93;;;34.43;;
16387;SDS011;8303;53.446;9.988;2023-03-01T20:38:25;88.47;;;38.37;;
16387;SDS011;8303;53.446;9.988;2023-03-01T20:40:56;77.90;;;35.97;;
16387;SDS011;8303;53.446;9.988;2023-03-01T20:43:23;82.67;;;34.93;;
16387;SDS011;8303;53.446;9.988;2023-03-01T20:45:50;73.03;;;34.37;;
16387;SDS011;8303;53.446;9.988;2023-03-01T20:48:17;75.57;;;33.67;;
16387;SDS011;8303;53.446;9.988;2023-03-01T20:50:45;63.87;;;31.63;;
16387;SDS011;8303;53.446;9.988;2023-03-01T20:53:13;67.43;;;31.67;;
16387;SDS011;8303;53.446;9.988;2023-03-01T20:55:40;73.73;;;33.93;;
16387;SDS011;8303;53.446;9.988;2023-03-01T20:58:07;68.70;;;31.87;;
16387;SDS011;8303;53.446;9.988;2023-03-01T21:00:34;59.37;;;30.50;;
16387;SDS011;8303;53.446;9.988;2023-03-01T21:03:01;67.03;;;31.23;;